createdAt,value
2019-06-20T00:05:57.520Z,13.57
2019-06-20T00:16:05.269Z,13.80
2019-06-20T00:26:12.527Z,14.37
2019-06-20T00:47:22.066Z,15.47
2019-06-20T00:57:27.766Z,15.13
2019-06-20T01:07:33.595Z,13.50
2019-06-20T01:17:39.203Z,15.10
2019-06-20T01:27:44.978Z,13.97
2019-06-20T01:37:50.361Z,15.30
2019-06-20T01:47:56.062Z,13.30
2019-06-20T01:58:01.560Z,13.87
2019-06-20T02:08:07.557Z,14.17
2019-06-20T02:18:13.982Z,12.53
2019-06-20T02:28:21.323Z,12.27
2019-06-20T02:38:28.458Z,11.67
2019-06-20T02:48:34.871Z,14.70
2019-06-20T02:58:41.188Z,15.20
2019-06-20T03:08:50.061Z,13.33
2019-06-20T03:18:56.173Z,11.83
2019-06-20T03:29:02.593Z,10.27
2019-06-20T03:39:08.800Z,10.83
2019-06-20T03:49:15.014Z,10.57
2019-06-20T03:59:22.559Z,10.33
2019-06-20T04:09:28.731Z,10.07
2019-06-20T04:19:35.082Z,10.73
2019-06-20T04:29:42.719Z,10.70
2019-06-20T04:39:49.144Z,8.90
2019-06-20T04:49:56.072Z,9.07
2019-06-20T05:00:04.950Z,9.17
2019-06-20T05:10:12.097Z,9.13
2019-06-20T05:20:20.548Z,8.83
2019-06-20T05:30:26.660Z,9.07
2019-06-20T05:40:36.306Z,8.67
2019-06-20T05:50:41.439Z,8.13
2019-06-20T06:00:49.635Z,7.60
2019-06-20T06:10:55.803Z,7.77
2019-06-20T06:21:02.020Z,8.07
2019-06-20T06:31:08.549Z,7.67
2019-06-20T06:41:14.768Z,7.80
2019-06-20T06:51:23.121Z,8.80
2019-06-20T07:01:29.427Z,9.80
2019-06-20T07:11:35.541Z,9.60
2019-06-20T07:21:41.434Z,9.30
2019-06-20T07:31:47.827Z,10.27
2019-06-20T07:41:54.177Z,10.47
2019-06-20T07:52:00.388Z,11.13
2019-06-20T08:02:09.575Z,10.27
2019-06-20T08:12:15.782Z,11.30
2019-06-20T08:22:21.913Z,9.20
2019-06-20T08:32:28.521Z,10.17
2019-06-20T08:42:34.625Z,9.17
2019-06-20T08:52:40.738Z,10.90
2019-06-20T09:02:47.039Z,11.83
2019-06-20T09:12:55.102Z,10.73
2019-06-20T09:23:03.198Z,11.77
2019-06-20T09:33:09.479Z,11.30
2019-06-20T09:43:27.097Z,12.10
2019-06-20T09:53:23.949Z,12.17
2019-06-20T10:03:30.468Z,12.10
2019-06-20T10:13:37.096Z,12.03
2019-06-20T10:23:46.178Z,11.90
2019-06-20T10:33:54.837Z,9.33
2019-06-20T10:44:00.743Z,7.37
2019-06-20T10:54:07.213Z,8.53
2019-06-20T11:04:14.496Z,7.70
2019-06-20T11:14:21.735Z,8.00
2019-06-20T11:24:27.853Z,8.47
2019-06-20T11:34:34.254Z,7.57
2019-06-20T11:44:40.917Z,8.43
2019-06-20T11:54:47.099Z,8.43
2019-06-20T12:04:55.568Z,9.10
2019-06-20T12:15:01.903Z,9.70
2019-06-20T12:25:09.366Z,10.60
2019-06-20T12:35:15.976Z,11.07
2019-06-20T12:45:22.175Z,11.20
2019-06-20T12:55:28.683Z,12.20
2019-06-20T13:05:34.874Z,11.60
2019-06-20T13:15:42.744Z,12.90
2019-06-20T13:25:49.013Z,12.20
2019-06-20T13:35:55.788Z,14.20
2019-06-20T13:46:03.023Z,13.10
2019-06-20T13:56:09.110Z,13.70
2019-06-20T14:06:16.425Z,14.80
2019-06-20T14:16:23.385Z,14.47
2019-06-20T14:26:32.049Z,13.93
2019-06-20T14:36:38.677Z,13.60
2019-06-20T14:46:45.095Z,13.30
2019-06-20T14:56:53.891Z,11.37
2019-06-20T15:07:02.137Z,9.57
2019-06-20T15:17:08.442Z,9.13
2019-06-20T15:27:14.548Z,8.87
2019-06-20T15:37:21.126Z,8.60
2019-06-20T15:47:27.411Z,8.50
2019-06-20T15:57:33.801Z,9.43
2019-06-20T16:07:40.220Z,9.10
2019-06-20T16:17:46.534Z,8.13
2019-06-20T16:27:52.953Z,8.73
2019-06-20T16:37:59.585Z,8.60
2019-06-20T16:48:05.793Z,8.47
2019-06-20T16:58:12.144Z,9.33
2019-06-20T17:08:18.415Z,9.27
2019-06-20T17:18:28.710Z,8.60
2019-06-20T17:28:34.848Z,9.77
2019-06-20T17:38:41.045Z,9.70
2019-06-20T17:48:48.998Z,9.87
2019-06-20T17:58:55.211Z,5.83
2019-06-20T18:09:05.240Z,5.00
2019-06-20T18:19:13.265Z,5.20
2019-06-20T18:29:21.227Z,6.57
2019-06-20T18:39:28.251Z,6.77
2019-06-20T18:49:34.672Z,5.53
2019-06-20T18:59:41.495Z,5.97
2019-06-20T19:09:47.874Z,6.67
2019-06-20T19:19:54.843Z,6.40
2019-06-20T19:30:02.392Z,7.07
2019-06-20T19:40:10.849Z,6.23
2019-06-20T19:50:19.853Z,6.47
2019-06-20T20:00:27.376Z,6.23
2019-06-20T20:10:39.729Z,6.30
2019-06-20T20:20:47.907Z,7.90
2019-06-20T20:30:54.924Z,6.83
2019-06-20T20:41:04.307Z,6.70
2019-06-20T20:51:10.825Z,6.83
2019-06-20T21:01:35.569Z,7.37
2019-06-20T21:11:42.193Z,7.77
2019-06-20T21:21:48.614Z,8.77
2019-06-20T21:31:54.829Z,10.57
2019-06-20T21:42:01.328Z,11.43
2019-06-20T21:52:07.555Z,10.70
2019-06-20T22:02:13.979Z,10.97
2019-06-20T22:12:21.009Z,10.17
2019-06-20T22:22:27.728Z,10.87
2019-06-20T22:32:33.954Z,15.77
2019-06-20T22:42:41.459Z,14.33
2019-06-20T22:52:47.707Z,12.60
2019-06-20T23:02:54.218Z,17.03
2019-06-20T23:13:03.909Z,17.73
2019-06-20T23:23:10.428Z,16.87
2019-06-20T23:33:17.050Z,15.70
2019-06-20T23:43:24.798Z,13.77
2019-06-20T23:53:31.019Z,16.00
